sensor_id;sensor_type;location;lat;lon;timestamp;temperature;humidity
7936;DHT22;4013;49.744;8.118;2023-04-08T00:01:40;8.60;99.90
7936;DHT22;4013;49.744;8.118;2023-04-08T00:04:07;8.60;99.90
7936;DHT22;4013;49.744;8.118;2023-04-08T00:06:34;8.60;99.90
7936;DHT22;4013;49.744;8.118;2023-04-08T00:09:01;8.60;99.90
7936;DHT22;4013;49.744;8.118;2023-04-08T00:11:29;8.60;99.90
7936;DHT22;4013;49.744;8.118;2023-04-08T00:13:56;8.60;99.90
7936;DHT22;4013;49.744;8.118;2023-04-08T00:16:24;8.50;99.90
7936;DHT22;4013;49.744;8.118;2023-04-08T00:18:51;8.60;99.90
7936;DHT22;4013;49.744;8.118;2023-04-08T00:21:18;8.60;99.90
7936;DHT22;4013;49.744;8.118;2023-04-08T00:23:46;8.60;99.90
7936;DHT22;4013;49.744;8.118;2023-04-08T00:26:13;8.50;99.90
7936;DHT22;4013;49.744;8.118;2023-04-08T00:28:40;8.60;99.90
7936;DHT22;4013;49.744;8.118;2023-04-08T00:31:07;8.60;99.90
7936;DHT22;4013;49.744;8.118;2023-04-08T00:33:35;8.50;99.90
7936;DHT22;4013;49.744;8.118;2023-04-08T00:36:02;8.60;99.90
7936;DHT22;4013;49.744;8.118;2023-04-08T00:38:29;8.60;99.90
7936;DHT22;4013;49.744;8.118;2023-04-08T00:40:56;8.60;99.90
7936;DHT22;4013;49.744;8.118;2023-04-08T00:43:23;8.60;99.90
7936;DHT22;4013;49.744;8.118;2023-04-08T00:45:50;8.50;99.90
7936;DHT22;4013;49.744;8.118;2023-04-08T00:48:17;8.50;99.90
7936;DHT22;4013;49.744;8.118;2023-04-08T00:50:46;8.50;99.90
7936;DHT22;4013;49.744;8.118;2023-04-08T00:53:15;8.50;99.90
7936;DHT22;4013;49.744;8.118;2023-04-08T00:55:43;8.60;99.90
7936;DHT22;4013;49.744;8.118;2023-04-08T00:58:10;8.60;99.90
7936;DHT22;4013;49.744;8.118;2023-04-08T01:00:46;8.50;99.90
7936;DHT22;4013;49.744;8.118;2023-04-08T01:03:22;8.50;99.90
7936;DHT22;4013;49.744;8.118;2023-04-08T01:06:00;8.50;99.90
7936;DHT22;4013;49.744;8.118;2023-04-08T01:08:31;8.50;99.90
7936;DHT22;4013;49.744;8.118;2023-04-08T01:11:01;8.50;99.90
7936;DHT22;4013;49.744;8.118;2023-04-08T01:13:31;8.60;99.90
7936;DHT22;4013;49.744;8.118;2023-04-08T01:16:00;8.60;99.90
7936;DHT22;4013;49.744;8.118;2023-04-08T01:18:28;8.60;99.90
7936;DHT22;4013;49.744;8.118;2023-04-08T01:20:58;8.60;99.90
7936;DHT22;4013;49.744;8.118;2023-04-08T01:23:34;8.70;99.90
7936;DHT22;4013;49.744;8.118;2023-04-08T01:26:05;8.60;99.90
7936;DHT22;4013;49.744;8.118;2023-04-08T01:28:32;8.50;99.90
7936;DHT22;4013;49.744;8.118;2023-04-08T01:31:01;8.50;99.90
7936;DHT22;4013;49.744;8.118;2023-04-08T01:33:29;8.50;99.90
7936;DHT22;4013;49.744;8.118;2023-04-08T01:35:58;8.50;99.90
7936;DHT22;4013;49.744;8.118;2023-04-08T01:38:26;8.50;99.90
7936;DHT22;4013;49.744;8.118;2023-04-08T01:40:54;8.50;99.90
7936;DHT22;4013;49.744;8.118;2023-04-08T01:43:24;8.50;99.90
7936;DHT22;4013;49.744;8.118;2023-04-08T01:45:52;8.50;99.90
7936;DHT22;4013;49.744;8.118;2023-04-08T01:48:22;8.50;99.90
7936;DHT22;4013;49.744;8.118;2023-04-08T01:50:50;8.50;99.90
7936;DHT22;4013;49.744;8.118;2023-04-08T01:53:17;8.50;99.90
7936;DHT22;4013;49.744;8.118;2023-04-08T01:55:45;8.50;99.90
7936;DHT22;4013;49.744;8.118;2023-04-08T01:58:17;8.50;99.90
7936;DHT22;4013;49.744;8.118;2023-04-08T02:00:47;8.60;99.90
7936;DHT22;4013;49.744;8.118;2023-04-08T02:03:17;8.60;99.90
7936;DHT22;4013;49.744;8.118;2023-04-08T02:05:45;8.60;99.90
7936;DHT22;4013;49.744;8.118;2023-04-08T02:08:12;8.60;99.90
7936;DHT22;4013;49.744;8.118;2023-04-08T02:10:39;8.60;99.90
7936;DHT22;4013;49.744;8.118;2023-04-08T02:13:07;8.50;99.90
7936;DHT22;4013;49.744;8.118;2023-04-08T02:15:35;8.60;99.90
7936;DHT22;4013;49.744;8.118;2023-04-08T02:18:10;8.50;99.90
7936;DHT22;4013;49.744;8.118;2023-04-08T02:20:42;8.50;99.90
7936;DHT22;4013;49.744;8.118;2023-04-08T02:23:13;8.50;99.90
7936;DHT22;4013;49.744;8.118;2023-04-08T02:25:44;8.50;99.90
7936;DHT22;4013;49.744;8.118;2023-04-08T02:28:11;8.50;99.90
7936;DHT22;4013;49.744;8.118;2023-04-08T02:30:41;8.50;99.90
7936;DHT22;4013;49.744;8.118;2023-04-08T02:33:11;8.50;99.90
7936;DHT22;4013;49.744;8.118;2023-04-08T02:35:40;8.50;99.90
7936;DHT22;4013;49.744;8.118;2023-04-08T02:38:08;8.50;99.90
7936;DHT22;4013;49.744;8.118;2023-04-08T02:40:36;8.50;99.90
7936;DHT22;4013;49.744;8.118;2023-04-08T02:43:03;8.50;99.90
7936;DHT22;4013;49.744;8.118;2023-04-08T02:45:32;8.50;99.90
7936;DHT22;4013;49.744;8.118;2023-04-08T02:48:01;8.50;99.90
7936;DHT22;4013;49.744;8.118;2023-04-08T02:50:29;8.40;99.90
7936;DHT22;4013;49.744;8.118;2023-04-08T02:52:56;8.40;99.90
7936;DHT22;4013;49.744;8.118;2023-04-08T02:55:23;8.40;99.90
7936;DHT22;4013;49.744;8.118;2023-04-08T02:57:50;8.40;99.90
7936;DHT22;4013;49.744;8.118;2023-04-08T03:00:17;8.30;99.90
7936;DHT22;4013;49.744;8.118;2023-04-08T03:02:44;8.40;99.90
7936;DHT22;4013;49.744;8.118;2023-04-08T03:05:11;8.40;99.90
7936;DHT22;4013;49.744;8.118;2023-04-08T03:07:39;8.30;99.90
7936;DHT22;4013;49.744;8.118;2023-04-08T03:10:07;8.30;99.90
7936;DHT22;4013;49.744;8.118;2023-04-08T03:12:34;8.40;99.90
7936;DHT22;4013;49.744;8.118;2023-04-08T03:15:01;8.40;99.90
7936;DHT22;4013;49.744;8.118;2023-04-08T03:17:28;8.40;99.90
7936;DHT22;4013;49.744;8.118;2023-04-08T03:19:58;8.40;99.90
7936;DHT22;4013;49.744;8.118;2023-04-08T03:22:25;8.40;99.90
7936;DHT22;4013;49.744;8.118;2023-04-08T03:24:53;8.40;99.90
7936;DHT22;4013;49.744;8.118;2023-04-08T03:27:20;8.30;99.90
7936;DHT22;4013;49.744;8.118;2023-04-08T03:29:47;8.30;99.90
7936;DHT22;4013;49.744;8.118;2023-04-08T03:32:14;8.30;99.90
7936;DHT22;4013;49.744;8.118;2023-04-08T03:34:41;8.30;99.90
7936;DHT22;4013;49.744;8.118;2023-04-08T03:37:08;8.30;99.90
7936;DHT22;4013;49.744;8.118;2023-04-08T03:39:35;8.20;99.90
7936;DHT22;4013;49.744;8.118;2023-04-08T03:42:03;8.20;99.90
7936;DHT22;4013;49.744;8.118;2023-04-08T03:44:30;8.20;99.90
7936;DHT22;4013;49.744;8.118;2023-04-08T03:46:57;8.30;99.90
7936;DHT22;4013;49.744;8.118;2023-04-08T03:49:24;8.30;99.90
7936;DHT22;4013;49.744;8.118;2023-04-08T03:51:51;8.30;99.90
7936;DHT22;4013;49.744;8.118;2023-04-08T03:54:17;8.30;99.90
7936;DHT22;4013;49.744;8.118;2023-04-08T03:56:45;8.30;99.90
7936;DHT22;4013;49.744;8.118;2023-04-08T03:59:13;8.20;99.90
7936;DHT22;4013;49.744;8.118;2023-04-08T04:01:40;8.20;99.90
7936;DHT22;4013;49.744;8.118;2023-04-08T04:04:07;8.30;99.90
7936;DHT22;4013;49.744;8.118;2023-04-08T04:06:34;8.20;99.90
7936;DHT22;4013;49.744;8.118;2023-04-08T04:09:01;8.20;99.90
7936;DHT22;4013;49.744;8.118;2023-04-08T04:11:27;8.30;99.90
7936;DHT22;4013;49.744;8.118;2023-04-08T04:13:54;8.30;99.90
7936;DHT22;4013;49.744;8.118;2023-04-08T04:16:23;8.20;99.90
7936;DHT22;4013;49.744;8.118;2023-04-08T04:18:51;8.20;99.90
7936;DHT22;4013;49.744;8.118;2023-04-08T04:21:18;8.20;99.90
7936;DHT22;4013;49.744;8.118;2023-04-08T04:23:45;8.20;99.90
7936;DHT22;4013;49.744;8.118;2023-04-08T04:26:12;8.10;99.90
7936;DHT22;4013;49.744;8.118;2023-04-08T04:28:39;8.10;99.90
7936;DHT22;4013;49.744;8.118;2023-04-08T04:31:06;8.10;99.90
7936;DHT22;4013;49.744;8.118;2023-04-08T04:33:35;8.00;99.90
7936;DHT22;4013;49.744;8.118;2023-04-08T04:36:02;8.00;99.90
7936;DHT22;4013;49.744;8.118;2023-04-08T04:38:28;8.00;99.90
7936;DHT22;4013;49.744;8.118;2023-04-08T04:40:56;8.00;99.90
7936;DHT22;4013;49.744;8.118;2023-04-08T04:43:23;8.00;99.90
7936;DHT22;4013;49.744;8.118;2023-04-08T04:45:50;8.00;99.90
7936;DHT22;4013;49.744;8.118;2023-04-08T04:48:17;7.90;99.90
7936;DHT22;4013;49.744;8.118;2023-04-08T04:50:53;7.90;99.90
7936;DHT22;4013;49.744;8.118;2023-04-08T04:53:20;7.90;99.90
7936;DHT22;4013;49.744;8.118;2023-04-08T04:55:47;7.90;99.90
7936;DHT22;4013;49.744;8.118;2023-04-08T04:58:15;7.90;99.90
7936;DHT22;4013;49.744;8.118;2023-04-08T05:00:42;7.80;99.90
7936;DHT22;4013;49.744;8.118;2023-04-08T05:03:09;7.80;99.90
7936;DHT22;4013;49.744;8.118;2023-04-08T05:05:36;7.80;99.90
7936;DHT22;4013;49.744;8.118;2023-04-08T05:08:05;7.80;99.90
7936;DHT22;4013;49.744;8.118;2023-04-08T05:10:32;7.80;99.90
7936;DHT22;4013;49.744;8.118;2023-04-08T05:12:59;7.70;99.90
7936;DHT22;4013;49.744;8.118;2023-04-08T05:15:26;7.70;99.90
7936;DHT22;4013;49.744;8.118;2023-04-08T05:17:53;7.80;99.90
7936;DHT22;4013;49.744;8.118;2023-04-08T05:20:20;7.80;99.90
7936;DHT22;4013;49.744;8.118;2023-04-08T05:22:48;7.80;99.90
7936;DHT22;4013;49.744;8.118;2023-04-08T05:25:17;7.80;99.90
7936;DHT22;4013;49.744;8.118;2023-04-08T05:27:44;7.80;99.90
7936;DHT22;4013;49.744;8.118;2023-04-08T05:30:11;7.80;99.90
7936;DHT22;4013;49.744;8.118;2023-04-08T05:32:38;7.80;99.90
7936;DHT22;4013;49.744;8.118;2023-04-08T05:35:06;7.80;99.90
7936;DHT22;4013;49.744;8.118;2023-04-08T05:37:34;7.80;99.90
7936;DHT22;4013;49.744;8.118;2023-04-08T05:40:01;7.80;99.90
7936;DHT22;4013;49.744;8.118;2023-04-08T05:42:29;7.80;99.90
7936;DHT22;4013;49.744;8.118;2023-04-08T05:44:56;7.90;99.90
7936;DHT22;4013;49.744;8.118;2023-04-08T05:47:23;7.80;99.90
7936;DHT22;4013;49.744;8.118;2023-04-08T05:49:50;7.80;99.90
7936;DHT22;4013;49.744;8.118;2023-04-08T05:52:17;7.90;99.90
7936;DHT22;4013;49.744;8.118;2023-04-08T05:54:44;8.00;99.90
7936;DHT22;4013;49.744;8.118;2023-04-08T05:57:11;8.00;99.90
7936;DHT22;4013;49.744;8.118;2023-04-08T05:59:40;8.10;99.90
7936;DHT22;4013;49.744;8.118;2023-04-08T06:02:07;8.10;99.90
7936;DHT22;4013;49.744;8.118;2023-04-08T06:04:34;8.10;99.90
7936;DHT22;4013;49.744;8.118;2023-04-08T06:07:01;8.20;99.90
7936;DHT22;4013;49.744;8.118;2023-04-08T06:09:29;8.30;99.90
7936;DHT22;4013;49.744;8.118;2023-04-08T06:11:56;8.30;99.90
7936;DHT22;4013;49.744;8.118;2023-04-08T06:14:23;8.30;99.90
7936;DHT22;4013;49.744;8.118;2023-04-08T06:16:51;8.40;99.90
7936;DHT22;4013;49.744;8.118;2023-04-08T06:19:19;8.50;99.90
7936;DHT22;4013;49.744;8.118;2023-04-08T06:21:46;8.50;99.90
7936;DHT22;4013;49.744;8.118;2023-04-08T06:24:13;8.50;99.90
7936;DHT22;4013;49.744;8.118;2023-04-08T06:26:40;8.70;99.90
7936;DHT22;4013;49.744;8.118;2023-04-08T06:29:07;8.70;99.90
7936;DHT22;4013;49.744;8.118;2023-04-08T06:31:34;8.70;99.90
7936;DHT22;4013;49.744;8.118;2023-04-08T06:34:02;8.80;99.90
7936;DHT22;4013;49.744;8.118;2023-04-08T06:36:29;8.80;99.90
7936;DHT22;4013;49.744;8.118;2023-04-08T06:38:56;8.90;99.90
7936;DHT22;4013;49.744;8.118;2023-04-08T06:41:23;9.00;99.90
7936;DHT22;4013;49.744;8.118;2023-04-08T06:43:50;9.10;99.90
7936;DHT22;4013;49.744;8.118;2023-04-08T06:46:17;9.10;99.90
7936;DHT22;4013;49.744;8.118;2023-04-08T06:48:44;9.00;99.90
7936;DHT22;4013;49.744;8.118;2023-04-08T06:51:12;9.00;99.90
7936;DHT22;4013;49.744;8.118;2023-04-08T06:53:39;9.10;99.90
7936;DHT22;4013;49.744;8.118;2023-04-08T06:56:06;9.20;99.90
7936;DHT22;4013;49.744;8.118;2023-04-08T06:58:33;9.10;99.90
7936;DHT22;4013;49.744;8.118;2023-04-08T07:01:00;9.00;99.90
7936;DHT22;4013;49.744;8.118;2023-04-08T07:03:27;8.90;99.90
7936;DHT22;4013;49.744;8.118;2023-04-08T07:05:54;9.00;99.90
7936;DHT22;4013;49.744;8.118;2023-04-08T07:08:23;9.20;99.90
7936;DHT22;4013;49.744;8.118;2023-04-08T07:10:51;9.30;99.90
7936;DHT22;4013;49.744;8.118;2023-04-08T07:13:18;9.20;99.90
7936;DHT22;4013;49.744;8.118;2023-04-08T07:15:45;9.10;99.90
7936;DHT22;4013;49.744;8.118;2023-04-08T07:18:12;9.20;99.90
7936;DHT22;4013;49.744;8.118;2023-04-08T07:20:39;9.20;99.90
7936;DHT22;4013;49.744;8.118;2023-04-08T07:23:06;9.30;99.90
7936;DHT22;4013;49.744;8.118;2023-04-08T07:25:35;9.30;99.90
7936;DHT22;4013;49.744;8.118;2023-04-08T07:28:02;9.40;99.90
7936;DHT22;4013;49.744;8.118;2023-04-08T07:30:29;9.50;99.90
7936;DHT22;4013;49.744;8.118;2023-04-08T07:32:56;9.50;99.90
7936;DHT22;4013;49.744;8.118;2023-04-08T07:35:23;9.50;99.90
7936;DHT22;4013;49.744;8.118;2023-04-08T07:37:51;9.60;99.90
7936;DHT22;4013;49.744;8.118;2023-04-08T07:40:19;9.60;99.90
7936;DHT22;4013;49.744;8.118;2023-04-08T07:42:48;9.70;99.90
7936;DHT22;4013;49.744;8.118;2023-04-08T07:45:15;9.70;99.90
7936;DHT22;4013;49.744;8.118;2023-04-08T07:47:43;9.80;99.90
7936;DHT22;4013;49.744;8.118;2023-04-08T07:50:10;9.90;99.90
7936;DHT22;4013;49.744;8.118;2023-04-08T07:52:37;9.90;99.90
7936;DHT22;4013;49.744;8.118;2023-04-08T07:55:05;10.00;99.90
7936;DHT22;4013;49.744;8.118;2023-04-08T07:57:32;10.00;99.90
7936;DHT22;4013;49.744;8.118;2023-04-08T08:00:00;10.00;99.90
7936;DHT22;4013;49.744;8.118;2023-04-08T08:02:28;9.70;99.90
7936;DHT22;4013;49.744;8.118;2023-04-08T08:04:55;9.60;99.90
7936;DHT22;4013;49.744;8.118;2023-04-08T08:07:22;9.80;99.90
7936;DHT22;4013;49.744;8.118;2023-04-08T08:09:49;9.90;99.90
7936;DHT22;4013;49.744;8.118;2023-04-08T08:12:16;9.90;99.90
7936;DHT22;4013;49.744;8.118;2023-04-08T08:14:43;10.00;99.90
7936;DHT22;4013;49.744;8.118;2023-04-08T08:17:11;9.80;99.90
7936;DHT22;4013;49.744;8.118;2023-04-08T08:19:39;9.80;99.90
7936;DHT22;4013;49.744;8.118;2023-04-08T08:22:05;9.80;99.90
7936;DHT22;4013;49.744;8.118;2023-04-08T08:24:32;9.70;99.90
7936;DHT22;4013;49.744;8.118;2023-04-08T08:26:59;9.70;99.90
7936;DHT22;4013;49.744;8.118;2023-04-08T08:29:29;9.80;99.90
7936;DHT22;4013;49.744;8.118;2023-04-08T08:31:55;9.80;99.90
7936;DHT22;4013;49.744;8.118;2023-04-08T08:34:24;9.80;99.90
7936;DHT22;4013;49.744;8.118;2023-04-08T08:36:51;9.90;99.90
7936;DHT22;4013;49.744;8.118;2023-04-08T08:39:18;10.00;99.90
7936;DHT22;4013;49.744;8.118;2023-04-08T08:41:45;10.00;99.90
7936;DHT22;4013;49.744;8.118;2023-04-08T08:44:13;10.00;99.90
7936;DHT22;4013;49.744;8.118;2023-04-08T08:46:43;9.90;99.90
7936;DHT22;4013;49.744;8.118;2023-04-08T08:49:11;9.90;99.90
7936;DHT22;4013;49.744;8.118;2023-04-08T08:51:40;9.90;99.90
7936;DHT22;4013;49.744;8.118;2023-04-08T08:54:07;9.90;99.90
7936;DHT22;4013;49.744;8.118;2023-04-08T08:56:34;10.00;99.90
7936;DHT22;4013;49.744;8.118;2023-04-08T08:59:01;9.90;99.90
7936;DHT22;4013;49.744;8.118;2023-04-08T09:01:37;9.90;99.90
7936;DHT22;4013;49.744;8.118;2023-04-08T09:04:07;10.00;99.90
7936;DHT22;4013;49.744;8.118;2023-04-08T09:06:34;10.10;99.90
7936;DHT22;4013;49.744;8.118;2023-04-08T09:09:02;10.20;99.90
7936;DHT22;4013;49.744;8.118;2023-04-08T09:11:31;10.20;99.90
7936;DHT22;4013;49.744;8.118;2023-04-08T09:13:58;10.20;99.90
7936;DHT22;4013;49.744;8.118;2023-04-08T09:16:25;10.30;99.90
7936;DHT22;4013;49.744;8.118;2023-04-08T09:18:53;10.30;99.90
7936;DHT22;4013;49.744;8.118;2023-04-08T09:21:22;10.40;99.90
7936;DHT22;4013;49.744;8.118;2023-04-08T09:23:50;10.30;99.90
7936;DHT22;4013;49.744;8.118;2023-04-08T09:26:20;10.50;99.90
7936;DHT22;4013;49.744;8.118;2023-04-08T09:28:58;10.60;99.90
7936;DHT22;4013;49.744;8.118;2023-04-08T09:31:27;10.70;99.90
7936;DHT22;4013;49.744;8.118;2023-04-08T09:33:55;10.90;99.90
7936;DHT22;4013;49.744;8.118;2023-04-08T09:36:22;11.00;99.90
7936;DHT22;4013;49.744;8.118;2023-04-08T09:38:51;10.80;99.90
7936;DHT22;4013;49.744;8.118;2023-04-08T09:41:21;10.60;99.90
7936;DHT22;4013;49.744;8.118;2023-04-08T09:43:50;10.70;99.90
7936;DHT22;4013;49.744;8.118;2023-04-08T09:46:19;10.70;99.90
7936;DHT22;4013;49.744;8.118;2023-04-08T09:48:57;10.70;99.90
7936;DHT22;4013;49.744;8.118;2023-04-08T09:51:31;10.70;99.90
7936;DHT22;4013;49.744;8.118;2023-04-08T09:54:01;10.70;99.90
7936;DHT22;4013;49.744;8.118;2023-04-08T09:56:48;10.80;99.90
7936;DHT22;4013;49.744;8.118;2023-04-08T09:59:17;10.70;99.90
7936;DHT22;4013;49.744;8.118;2023-04-08T10:01:51;10.80;99.90
7936;DHT22;4013;49.744;8.118;2023-04-08T10:04:20;10.90;99.90
7936;DHT22;4013;49.744;8.118;2023-04-08T10:06:56;10.80;99.90
7936;DHT22;4013;49.744;8.118;2023-04-08T10:09:23;10.70;99.90
7936;DHT22;4013;49.744;8.118;2023-04-08T10:11:52;10.70;99.90
7936;DHT22;4013;49.744;8.118;2023-04-08T10:14:19;10.80;99.90
7936;DHT22;4013;49.744;8.118;2023-04-08T10:16:47;10.80;99.90
7936;DHT22;4013;49.744;8.118;2023-04-08T10:19:35;10.90;99.90
7936;DHT22;4013;49.744;8.118;2023-04-08T10:22:03;10.90;99.90
7936;DHT22;4013;49.744;8.118;2023-04-08T10:24:30;10.90;99.90
7936;DHT22;4013;49.744;8.118;2023-04-08T10:26:58;10.90;99.90
7936;DHT22;4013;49.744;8.118;2023-04-08T10:29:31;10.90;99.90
7936;DHT22;4013;49.744;8.118;2023-04-08T10:31:59;11.00;99.90
7936;DHT22;4013;49.744;8.118;2023-04-08T10:34:27;10.90;99.90
7936;DHT22;4013;49.744;8.118;2023-04-08T10:36:56;10.90;99.90
7936;DHT22;4013;49.744;8.118;2023-04-08T10:39:26;11.00;99.90
7936;DHT22;4013;49.744;8.118;2023-04-08T10:41:54;11.00;99.90
7936;DHT22;4013;49.744;8.118;2023-04-08T10:44:24;11.00;99.90
7936;DHT22;4013;49.744;8.118;2023-04-08T10:46:52;10.90;99.90
7936;DHT22;4013;49.744;8.118;2023-04-08T10:49:20;10.90;99.90
7936;DHT22;4013;49.744;8.118;2023-04-08T10:51:47;10.80;99.90
7936;DHT22;4013;49.744;8.118;2023-04-08T10:54:15;10.80;99.90
7936;DHT22;4013;49.744;8.118;2023-04-08T10:56:47;10.90;99.90
7936;DHT22;4013;49.744;8.118;2023-04-08T10:59:15;11.00;99.90
7936;DHT22;4013;49.744;8.118;2023-04-08T11:01:45;11.00;99.90
7936;DHT22;4013;49.744;8.118;2023-04-08T11:04:13;11.00;99.90
7936;DHT22;4013;49.744;8.118;2023-04-08T11:06:42;11.00;99.90
7936;DHT22;4013;49.744;8.118;2023-04-08T11:09:09;11.00;99.90
7936;DHT22;4013;49.744;8.118;2023-04-08T11:11:37;11.10;99.90
7936;DHT22;4013;49.744;8.118;2023-04-08T11:14:04;11.20;99.90
7936;DHT22;4013;49.744;8.118;2023-04-08T11:16:32;11.30;99.90
7936;DHT22;4013;49.744;8.118;2023-04-08T11:19:01;11.40;99.90
7936;DHT22;4013;49.744;8.118;2023-04-08T11:21:30;11.20;99.90
7936;DHT22;4013;49.744;8.118;2023-04-08T11:23:57;11.20;99.90
7936;DHT22;4013;49.744;8.118;2023-04-08T11:26:24;11.20;99.90
7936;DHT22;4013;49.744;8.118;2023-04-08T11:28:53;11.30;99.90
7936;DHT22;4013;49.744;8.118;2023-04-08T11:31:22;11.10;99.90
7936;DHT22;4013;49.744;8.118;2023-04-08T11:33:52;11.10;99.90
7936;DHT22;4013;49.744;8.118;2023-04-08T11:36:20;11.10;99.90
7936;DHT22;4013;49.744;8.118;2023-04-08T11:38:47;11.30;99.90
7936;DHT22;4013;49.744;8.118;2023-04-08T11:41:15;11.40;99.90
7936;DHT22;4013;49.744;8.118;2023-04-08T11:43:55;11.40;99.90
7936;DHT22;4013;49.744;8.118;2023-04-08T11:46:22;11.30;99.90
7936;DHT22;4013;49.744;8.118;2023-04-08T11:49:00;11.30;99.90
7936;DHT22;4013;49.744;8.118;2023-04-08T11:51:28;11.10;99.90
7936;DHT22;4013;49.744;8.118;2023-04-08T11:53:55;11.10;99.90
7936;DHT22;4013;49.744;8.118;2023-04-08T11:56:29;11.20;99.90
7936;DHT22;4013;49.744;8.118;2023-04-08T11:58:58;11.40;99.90
7936;DHT22;4013;49.744;8.118;2023-04-08T12:01:26;11.30;99.90
7936;DHT22;4013;49.744;8.118;2023-04-08T12:03:54;11.40;99.90
7936;DHT22;4013;49.744;8.118;2023-04-08T12:06:21;11.40;99.90
7936;DHT22;4013;49.744;8.118;2023-04-08T12:08:50;11.50;99.90
7936;DHT22;4013;49.744;8.118;2023-04-08T12:11:17;11.60;99.90
7936;DHT22;4013;49.744;8.118;2023-04-08T12:13:44;11.70;99.90
7936;DHT22;4013;49.744;8.118;2023-04-08T12:16:11;11.60;99.90
7936;DHT22;4013;49.744;8.118;2023-04-08T12:18:38;11.70;99.90
7936;DHT22;4013;49.744;8.118;2023-04-08T12:21:05;11.50;99.90
7936;DHT22;4013;49.744;8.118;2023-04-08T12:23:32;11.50;99.90
7936;DHT22;4013;49.744;8.118;2023-04-08T12:26:00;11.70;99.90
7936;DHT22;4013;49.744;8.118;2023-04-08T12:28:28;11.80;99.90
7936;DHT22;4013;49.744;8.118;2023-04-08T12:30:55;11.70;99.90
7936;DHT22;4013;49.744;8.118;2023-04-08T12:33:22;11.60;99.90
7936;DHT22;4013;49.744;8.118;2023-04-08T12:35:49;11.70;99.90
7936;DHT22;4013;49.744;8.118;2023-04-08T12:38:16;11.80;99.90
7936;DHT22;4013;49.744;8.118;2023-04-08T12:40:43;12.00;99.90
7936;DHT22;4013;49.744;8.118;2023-04-08T12:43:11;12.20;99.90
7936;DHT22;4013;49.744;8.118;2023-04-08T12:45:38;12.20;99.90
7936;DHT22;4013;49.744;8.118;2023-04-08T12:48:05;12.20;99.90
7936;DHT22;4013;49.744;8.118;2023-04-08T12:50:32;12.20;99.90
7936;DHT22;4013;49.744;8.118;2023-04-08T12:52:59;12.30;99.90
7936;DHT22;4013;49.744;8.118;2023-04-08T12:55:26;12.00;99.90
7936;DHT22;4013;49.744;8.118;2023-04-08T12:57:53;11.80;99.90
7936;DHT22;4013;49.744;8.118;2023-04-08T13:00:22;11.90;99.90
7936;DHT22;4013;49.744;8.118;2023-04-08T13:02:50;12.00;99.90
7936;DHT22;4013;49.744;8.118;2023-04-08T13:05:17;12.00;99.90
7936;DHT22;4013;49.744;8.118;2023-04-08T13:07:45;12.10;99.90
7936;DHT22;4013;49.744;8.118;2023-04-08T13:10:12;12.10;99.90
7936;DHT22;4013;49.744;8.118;2023-04-08T13:12:38;12.20;99.90
7936;DHT22;4013;49.744;8.118;2023-04-08T13:15:07;12.10;99.90
7936;DHT22;4013;49.744;8.118;2023-04-08T13:17:36;12.00;99.90
7936;DHT22;4013;49.744;8.118;2023-04-08T13:20:04;12.10;99.90
7936;DHT22;4013;49.744;8.118;2023-04-08T13:22:31;12.00;99.90
7936;DHT22;4013;49.744;8.118;2023-04-08T13:24:59;12.20;99.90
7936;DHT22;4013;49.744;8.118;2023-04-08T13:27:26;12.40;99.90
7936;DHT22;4013;49.744;8.118;2023-04-08T13:29:53;12.40;99.90
7936;DHT22;4013;49.744;8.118;2023-04-08T13:32:20;12.30;99.90
7936;DHT22;4013;49.744;8.118;2023-04-08T13:34:48;12.40;99.90
7936;DHT22;4013;49.744;8.118;2023-04-08T13:37:16;12.40;99.90
7936;DHT22;4013;49.744;8.118;2023-04-08T13:39:43;12.30;99.90
7936;DHT22;4013;49.744;8.118;2023-04-08T13:42:10;12.10;99.90
7936;DHT22;4013;49.744;8.118;2023-04-08T13:44:37;12.10;99.90
7936;DHT22;4013;49.744;8.118;2023-04-08T13:47:04;12.10;99.90
7936;DHT22;4013;49.744;8.118;2023-04-08T13:49:31;12.10;99.90
7936;DHT22;4013;49.744;8.118;2023-04-08T13:52:00;12.10;99.90
7936;DHT22;4013;49.744;8.118;2023-04-08T13:54:27;12.00;99.90
7936;DHT22;4013;49.744;8.118;2023-04-08T13:56:53;12.10;99.90
7936;DHT22;4013;49.744;8.118;2023-04-08T13:59:20;12.00;99.90
7936;DHT22;4013;49.744;8.118;2023-04-08T14:01:47;12.10;99.90
7936;DHT22;4013;49.744;8.118;2023-04-08T14:04:18;12.20;99.90
7936;DHT22;4013;49.744;8.118;2023-04-08T14:06:46;12.20;99.90
7936;DHT22;4013;49.744;8.118;2023-04-08T14:09:16;12.30;99.90
7936;DHT22;4013;49.744;8.118;2023-04-08T14:11:43;12.40;99.90
7936;DHT22;4013;49.744;8.118;2023-04-08T14:14:10;12.40;99.90
7936;DHT22;4013;49.744;8.118;2023-04-08T14:16:37;12.50;99.90
7936;DHT22;4013;49.744;8.118;2023-04-08T14:19:04;12.30;99.90
7936;DHT22;4013;49.744;8.118;2023-04-08T14:21:31;12.40;99.90
7936;DHT22;4013;49.744;8.118;2023-04-08T14:23:57;12.50;99.90
7936;DHT22;4013;49.744;8.118;2023-04-08T14:26:26;12.30;99.90
7936;DHT22;4013;49.744;8.118;2023-04-08T14:28:53;12.10;99.90
7936;DHT22;4013;49.744;8.118;2023-04-08T14:31:20;12.10;99.90
7936;DHT22;4013;49.744;8.118;2023-04-08T14:33:47;12.10;99.90
7936;DHT22;4013;49.744;8.118;2023-04-08T14:36:14;12.20;99.90
7936;DHT22;4013;49.744;8.118;2023-04-08T14:38:41;12.30;99.90
7936;DHT22;4013;49.744;8.118;2023-04-08T14:41:08;12.20;99.90
7936;DHT22;4013;49.744;8.118;2023-04-08T14:43:36;12.20;99.90
7936;DHT22;4013;49.744;8.118;2023-04-08T14:46:03;12.30;99.90
7936;DHT22;4013;49.744;8.118;2023-04-08T14:48:30;12.30;99.90
7936;DHT22;4013;49.744;8.118;2023-04-08T14:50:57;12.30;99.90
7936;DHT22;4013;49.744;8.118;2023-04-08T14:53:24;12.20;99.90
7936;DHT22;4013;49.744;8.118;2023-04-08T14:55:51;12.20;99.90
7936;DHT22;4013;49.744;8.118;2023-04-08T14:58:18;12.20;99.90
7936;DHT22;4013;49.744;8.118;2023-04-08T15:00:47;12.30;99.90
7936;DHT22;4013;49.744;8.118;2023-04-08T15:03:14;12.20;99.90
7936;DHT22;4013;49.744;8.118;2023-04-08T15:05:41;12.30;99.90
7936;DHT22;4013;49.744;8.118;2023-04-08T15:08:10;12.40;99.90
7936;DHT22;4013;49.744;8.118;2023-04-08T15:10:38;12.50;99.90
7936;DHT22;4013;49.744;8.118;2023-04-08T15:13:05;12.40;99.90
7936;DHT22;4013;49.744;8.118;2023-04-08T15:15:31;12.30;99.90
7936;DHT22;4013;49.744;8.118;2023-04-08T15:18:00;12.30;99.90
7936;DHT22;4013;49.744;8.118;2023-04-08T15:20:27;12.30;99.90
7936;DHT22;4013;49.744;8.118;2023-04-08T15:22:54;12.20;99.90
7936;DHT22;4013;49.744;8.118;2023-04-08T15:25:21;12.20;99.90
7936;DHT22;4013;49.744;8.118;2023-04-08T15:27:48;12.20;99.90
7936;DHT22;4013;49.744;8.118;2023-04-08T15:30:15;12.20;99.90
7936;DHT22;4013;49.744;8.118;2023-04-08T15:32:48;12.20;99.90
7936;DHT22;4013;49.744;8.118;2023-04-08T15:35:17;12.10;99.90
7936;DHT22;4013;49.744;8.118;2023-04-08T15:37:44;12.00;99.90
7936;DHT22;4013;49.744;8.118;2023-04-08T15:40:11;12.00;99.90
7936;DHT22;4013;49.744;8.118;2023-04-08T15:42:38;12.00;99.90
7936;DHT22;4013;49.744;8.118;2023-04-08T15:45:06;12.00;99.90
7936;DHT22;4013;49.744;8.118;2023-04-08T15:47:33;12.00;99.90
7936;DHT22;4013;49.744;8.118;2023-04-08T15:50:01;12.00;99.90
7936;DHT22;4013;49.744;8.118;2023-04-08T15:52:30;12.10;99.90
7936;DHT22;4013;49.744;8.118;2023-04-08T15:54:57;11.90;99.90
7936;DHT22;4013;49.744;8.118;2023-04-08T15:57:24;11.90;99.90
7936;DHT22;4013;49.744;8.118;2023-04-08T15:59:52;11.90;99.90
7936;DHT22;4013;49.744;8.118;2023-04-08T16:02:19;11.90;99.90
7936;DHT22;4013;49.744;8.118;2023-04-08T16:04:46;12.00;99.90
7936;DHT22;4013;49.744;8.118;2023-04-08T16:07:13;12.00;99.90
7936;DHT22;4013;49.744;8.118;2023-04-08T16:09:42;11.90;99.90
7936;DHT22;4013;49.744;8.118;2023-04-08T16:12:09;11.80;99.90
7936;DHT22;4013;49.744;8.118;2023-04-08T16:14:36;11.80;99.90